createdAt,value
2022-12-28T00:01:50.107Z,21.90
2022-12-28T00:06:53.371Z,21.60
2022-12-28T00:11:56.495Z,16.30
2022-12-28T00:16:59.483Z,18.70
2022-12-28T00:22:02.698Z,16.10
2022-12-28T00:27:05.709Z,19.90
2022-12-28T00:32:08.814Z,16.40
2022-12-28T00:37:13.141Z,13.90
2022-12-28T00:42:16.476Z,18.10
2022-12-28T00:47:19.360Z,14.50
2022-12-28T00:52:22.374Z,12.20
2022-12-28T00:57:25.377Z,10.00
2022-12-28T01:02:28.386Z,17.00
2022-12-28T01:07:31.696Z,12.20
2022-12-28T01:12:38.259Z,10.40
2022-12-28T01:17:41.703Z,11.60
2022-12-28T01:22:44.711Z,11.20
2022-12-28T01:27:47.613Z,14.30
2022-12-28T01:32:50.626Z,17.20
2022-12-28T01:37:53.625Z,14.50
2022-12-28T01:42:56.642Z,14.20
2022-12-28T01:47:59.654Z,13.40
2022-12-28T01:53:05.621Z,11.80
2022-12-28T01:58:16.919Z,14.80
2022-12-28T02:03:26.442Z,13.30
2022-12-28T02:09:00.622Z,11.50
2022-12-28T02:14:06.348Z,13.80
2022-12-28T02:19:14.336Z,15.50
2022-12-28T02:24:29.500Z,9.70
2022-12-28T02:29:51.959Z,10.40
2022-12-28T02:35:17.906Z,12.30
2022-12-28T02:40:38.216Z,12.30
2022-12-28T02:46:05.713Z,13.80
2022-12-28T02:51:28.161Z,11.90
2022-12-28T02:56:59.537Z,16.60
2022-12-28T03:02:25.404Z,12.00
2022-12-28T03:08:09.759Z,12.40
2022-12-28T03:13:45.221Z,16.00
2022-12-28T03:19:14.336Z,10.20
2022-12-28T03:24:38.134Z,11.70
2022-12-28T03:30:06.222Z,14.90
2022-12-28T03:35:09.999Z,13.90
2022-12-28T03:40:22.373Z,16.20
2022-12-28T03:45:46.363Z,17.70
2022-12-28T03:50:52.246Z,14.10
2022-12-28T03:56:07.032Z,12.80
2022-12-28T04:01:10.379Z,14.90
2022-12-28T04:06:18.369Z,14.00
2022-12-28T04:11:21.374Z,16.50
2022-12-28T04:16:24.419Z,16.90
2022-12-28T04:21:27.490Z,17.50
2022-12-28T04:26:30.419Z,21.90
2022-12-28T04:31:33.568Z,19.30
2022-12-28T04:36:36.926Z,18.00
2022-12-28T04:41:40.402Z,13.90
2022-12-28T04:46:43.365Z,19.00
2022-12-28T04:51:46.352Z,20.20
2022-12-28T04:56:49.252Z,21.30
2022-12-28T05:01:52.267Z,18.20
2022-12-28T05:06:55.263Z,18.90
2022-12-28T05:11:58.168Z,16.90
2022-12-28T05:17:01.180Z,20.40
2022-12-28T05:22:04.282Z,21.20
2022-12-28T05:27:07.495Z,20.00
2022-12-28T05:32:10.501Z,24.80
2022-12-28T05:37:18.485Z,26.60
2022-12-28T05:42:24.833Z,22.50
2022-12-28T05:47:28.022Z,18.20
2022-12-28T05:52:32.765Z,25.70
2022-12-28T05:57:35.878Z,28.20
2022-12-28T06:02:39.124Z,20.30
2022-12-28T06:07:42.299Z,23.50
2022-12-28T06:12:45.200Z,24.90
2022-12-28T06:17:48.209Z,25.30
2022-12-28T06:22:51.522Z,24.20
2022-12-28T06:27:54.527Z,37.00
2022-12-28T06:32:57.682Z,32.70
2022-12-28T06:38:00.848Z,28.40
2022-12-28T06:43:03.955Z,29.30
2022-12-28T06:48:06.857Z,33.40
2022-12-28T06:53:09.969Z,34.00
2022-12-28T06:58:12.974Z,29.60
2022-12-28T07:03:16.748Z,34.60
2022-12-28T07:08:19.803Z,33.90
2022-12-28T07:13:27.927Z,41.30
2022-12-28T07:18:32.686Z,32.00
2022-12-28T07:23:35.972Z,35.60
2022-12-28T07:28:40.774Z,28.40
2022-12-28T07:33:45.412Z,25.40
2022-12-28T07:38:49.108Z,28.70
2022-12-28T07:43:52.524Z,24.30
2022-12-28T07:48:57.296Z,27.60
2022-12-28T07:54:00.955Z,28.70
2022-12-28T07:59:05.749Z,32.40
2022-12-28T08:04:13.001Z,30.80
2022-12-28T08:09:16.066Z,25.60
2022-12-28T08:14:19.177Z,33.20
2022-12-28T08:19:22.278Z,27.70
2022-12-28T08:24:25.287Z,22.20
2022-12-28T08:29:28.500Z,23.50
2022-12-28T08:34:32.120Z,25.90
2022-12-28T08:39:35.232Z,21.00
2022-12-28T08:44:38.238Z,23.90
2022-12-28T08:49:41.443Z,19.70
2022-12-28T08:54:44.460Z,21.80
2022-12-28T08:59:47.581Z,21.10
2022-12-28T09:04:50.667Z,21.10
2022-12-28T09:09:53.895Z,21.50
2022-12-28T09:14:56.992Z,20.40
2022-12-28T09:20:00.210Z,18.60
2022-12-28T09:25:03.514Z,16.10
2022-12-28T09:30:07.921Z,15.80
2022-12-28T09:35:10.855Z,18.50
2022-12-28T09:40:13.946Z,14.40
2022-12-28T09:45:24.762Z,16.30
2022-12-28T09:50:31.551Z,18.00
2022-12-28T09:55:40.393Z,16.70
2022-12-28T10:00:50.120Z,13.60
2022-12-28T10:05:55.212Z,15.00
2022-12-28T10:11:02.406Z,14.90
2022-12-28T10:16:07.131Z,13.90
2022-12-28T10:21:11.623Z,17.60
2022-12-28T10:26:18.763Z,16.30
2022-12-28T10:31:32.741Z,13.10
2022-12-28T10:36:35.961Z,15.40
2022-12-28T10:41:41.006Z,16.10
2022-12-28T10:47:18.355Z,13.90
2022-12-28T10:52:21.847Z,20.20
2022-12-28T10:57:27.744Z,18.10
2022-12-28T11:02:35.269Z,15.90
2022-12-28T11:07:41.199Z,15.40
2022-12-28T11:12:45.666Z,16.40
2022-12-28T11:17:56.964Z,15.80
2022-12-28T11:23:00.832Z,21.40
2022-12-28T11:28:14.514Z,18.30
2022-12-28T11:33:34.037Z,17.40
2022-12-28T11:38:43.201Z,16.60
2022-12-28T11:44:05.863Z,14.60
2022-12-28T11:49:35.292Z,12.70
2022-12-28T11:54:50.993Z,15.40
2022-12-28T11:59:53.898Z,13.00
2022-12-28T12:04:57.056Z,14.90
2022-12-28T12:10:28.661Z,13.00
2022-12-28T12:15:41.720Z,14.30
2022-12-28T12:20:53.401Z,15.80
2022-12-28T12:26:00.062Z,13.00
2022-12-28T12:31:07.620Z,12.90
2022-12-28T12:36:16.602Z,14.80
2022-12-28T12:41:57.484Z,15.10
2022-12-28T12:47:27.216Z,16.50
2022-12-28T12:53:06.369Z,16.10
2022-12-28T12:58:17.252Z,18.10
2022-12-28T13:03:37.798Z,16.20
2022-12-28T13:08:51.855Z,15.70
2022-12-28T13:13:55.485Z,18.70
2022-12-28T13:19:01.721Z,21.80
2022-12-28T13:24:05.074Z,17.60
2022-12-28T13:29:15.035Z,16.20
2022-12-28T13:34:25.314Z,28.80
2022-12-28T13:39:33.205Z,19.30
2022-12-28T13:44:55.599Z,25.10
2022-12-28T13:50:09.837Z,20.70
2022-12-28T13:55:17.860Z,16.90
2022-12-28T14:00:22.935Z,46.50
2022-12-28T14:05:29.506Z,45.00
2022-12-28T14:10:33.045Z,25.50
2022-12-28T14:15:41.418Z,27.10
2022-12-28T14:20:53.294Z,31.80
2022-12-28T14:25:59.535Z,26.90
2022-12-28T14:31:04.755Z,29.30
2022-12-28T14:36:08.661Z,22.00
2022-12-28T14:41:23.138Z,30.40
2022-12-28T14:46:36.438Z,34.90
2022-12-28T14:51:44.091Z,41.20
2022-12-28T14:56:55.813Z,43.10
2022-12-28T15:01:59.008Z,44.30
2022-12-28T15:07:02.141Z,29.60
2022-12-28T15:12:20.694Z,49.50
2022-12-28T15:17:26.890Z,23.10
2022-12-28T15:22:34.502Z,48.80
2022-12-28T15:27:39.044Z,69.50
2022-12-28T15:32:42.060Z,32.20
2022-12-28T15:37:45.157Z,32.70
2022-12-28T15:42:48.268Z,57.30
2022-12-28T15:47:54.765Z,47.70
2022-12-28T15:52:57.758Z,35.10
2022-12-28T15:58:00.681Z,47.20
2022-12-28T16:03:04.052Z,88.70
2022-12-28T16:08:08.009Z,48.00
2022-12-28T16:13:11.037Z,17.00
2022-12-28T16:18:14.132Z,17.10
2022-12-28T16:23:17.057Z,17.40
2022-12-28T16:28:20.038Z,19.10
2022-12-28T16:33:24.309Z,20.00
2022-12-28T16:38:28.916Z,20.80
2022-12-28T16:43:31.922Z,19.40
2022-12-28T16:48:35.514Z,14.50
2022-12-28T16:53:38.914Z,40.00
2022-12-28T16:58:46.128Z,20.40
2022-12-28T17:03:52.039Z,18.00
2022-12-28T17:08:55.149Z,15.80
2022-12-28T17:14:05.027Z,15.00
2022-12-28T17:19:08.120Z,17.40
2022-12-28T17:24:11.433Z,20.90
2022-12-28T17:29:14.447Z,19.00
2022-12-28T17:34:17.444Z,21.60
2022-12-28T17:39:20.909Z,20.10
2022-12-28T17:44:23.868Z,19.70
2022-12-28T17:49:26.978Z,19.40
2022-12-28T17:54:29.997Z,21.80
2022-12-28T17:59:33.096Z,17.80
2022-12-28T18:04:36.934Z,19.10
2022-12-28T18:09:40.030Z,19.10
2022-12-28T18:14:43.128Z,17.30
2022-12-28T18:19:46.253Z,18.20
2022-12-28T18:24:50.779Z,17.30
2022-12-28T18:29:53.799Z,19.00
2022-12-28T18:34:56.797Z,16.10
2022-12-28T18:39:59.814Z,16.90
2022-12-28T18:45:02.815Z,16.80
2022-12-28T18:50:06.495Z,18.00
2022-12-28T18:55:10.058Z,17.50
2022-12-28T19:00:14.175Z,20.60
2022-12-28T19:05:17.199Z,18.40
2022-12-28T19:10:21.441Z,19.50
2022-12-28T19:15:24.649Z,17.70
2022-12-28T19:20:29.483Z,15.60
2022-12-28T19:25:32.600Z,16.60
2022-12-28T19:30:36.421Z,19.80
2022-12-28T19:35:39.427Z,17.70
2022-12-28T19:40:42.439Z,17.90
2022-12-28T19:45:45.448Z,19.20
2022-12-28T19:50:48.350Z,19.90
2022-12-28T19:55:57.421Z,17.50
2022-12-28T20:01:08.270Z,18.60
2022-12-28T20:06:14.656Z,15.80
2022-12-28T20:11:19.319Z,17.90
2022-12-28T20:16:22.390Z,18.30
2022-12-28T20:21:26.169Z,18.60
2022-12-28T20:26:29.895Z,18.00
2022-12-28T20:31:32.931Z,22.80
2022-12-28T20:36:36.406Z,18.80
2022-12-28T20:41:57.840Z,15.80
2022-12-28T20:47:02.166Z,15.80
2022-12-28T20:52:05.176Z,20.80
2022-12-28T20:57:08.186Z,18.70
2022-12-28T21:02:11.481Z,15.40
2022-12-28T21:07:14.503Z,16.60
2022-12-28T21:12:18.026Z,15.50
2022-12-28T21:17:21.350Z,19.50
2022-12-28T21:22:24.405Z,16.60
2022-12-28T21:27:29.178Z,15.60
2022-12-28T21:32:32.196Z,18.00
2022-12-28T21:37:35.893Z,17.30
2022-12-28T21:42:38.927Z,17.00
2022-12-28T21:47:42.347Z,17.40
2022-12-28T21:52:45.352Z,17.90
2022-12-28T21:57:54.607Z,16.60
2022-12-28T22:03:16.309Z,16.60
2022-12-28T22:08:37.991Z,19.80
2022-12-28T22:13:41.305Z,18.70
2022-12-28T22:19:01.521Z,17.80
2022-12-28T22:24:06.472Z,18.20
2022-12-28T22:29:09.592Z,16.80
2022-12-28T22:34:12.597Z,17.60
2022-12-28T22:39:15.595Z,19.90
2022-12-28T22:44:18.599Z,15.70
2022-12-28T22:49:21.708Z,20.20
2022-12-28T22:54:24.915Z,17.80
2022-12-28T22:59:28.028Z,15.40
2022-12-28T23:04:31.238Z,20.20
2022-12-28T23:09:34.441Z,15.70
2022-12-28T23:14:56.294Z,18.40
2022-12-28T23:20:17.836Z,14.40
2022-12-28T23:25:42.650Z,15.70
2022-12-28T23:30:48.713Z,18.90
2022-12-28T23:35:51.943Z,17.40
2022-12-28T23:41:14.919Z,19.00
2022-12-28T23:46:17.892Z,19.80
2022-12-28T23:51:21.139Z,16.50
2022-12-28T23:56:25.170Z,17.40
